sensor_id;sensor_type;location;lat;lon;timestamp;pressure;altitude;pressure_sealevel;temperature;humidity
70407;BME280;57821;52.202;0.154;2022-10-31T00:00:04;101685.72;;;12.29;92.64
70407;BME280;57821;52.202;0.154;2022-10-31T00:02:36;101691.78;;;12.26;92.76
70407;BME280;57821;52.202;0.154;2022-10-31T00:05:03;101683.97;;;12.23;92.99
70407;BME280;57821;52.202;0.154;2022-10-31T00:07:30;101683.97;;;12.20;92.29
70407;BME280;57821;52.202;0.154;2022-10-31T00:09:56;101694.34;;;12.19;92.80
70407;BME280;57821;52.202;0.154;2022-10-31T00:12:23;101691.75;;;12.16;92.63
70407;BME280;57821;52.202;0.154;2022-10-31T00:14:49;101693.47;;;12.14;93.31
70407;BME280;57821;52.202;0.154;2022-10-31T00:17:15;101693.44;;;12.12;92.72
70407;BME280;57821;52.202;0.154;2022-10-31T00:19:42;101689.13;;;12.11;92.50
70407;BME280;57821;52.202;0.154;2022-10-31T00:22:08;101693.44;;;12.09;92.99
70407;BME280;57821;52.202;0.154;2022-10-31T00:24:35;101694.31;;;12.10;93.51
70407;BME280;57821;52.202;0.154;2022-10-31T00:27:01;101694.31;;;12.08;93.20
70407;BME280;57821;52.202;0.154;2022-10-31T00:29:28;101685.63;;;12.08;92.69
70407;BME280;57821;52.202;0.154;2022-10-31T00:31:54;101694.28;;;12.07;93.33
70407;BME280;57821;52.202;0.154;2022-10-31T00:34:21;101688.22;;;12.06;93.52
70407;BME280;57821;52.202;0.154;2022-10-31T00:36:47;101689.09;;;12.05;92.78
70407;BME280;57821;52.202;0.154;2022-10-31T00:39:14;101694.31;;;12.05;93.46
70407;BME280;57821;52.202;0.154;2022-10-31T00:41:40;101695.16;;;12.04;92.84
70407;BME280;57821;52.202;0.154;2022-10-31T00:44:11;101688.22;;;12.03;93.45
70407;BME280;57821;52.202;0.154;2022-10-31T00:46:37;101685.59;;;12.02;92.60
70407;BME280;57821;52.202;0.154;2022-10-31T00:49:04;101686.47;;;11.99;92.61
70407;BME280;57821;52.202;0.154;2022-10-31T00:51:30;101685.59;;;11.97;93.17
70407;BME280;57821;52.202;0.154;2022-10-31T00:53:57;101687.31;;;11.93;93.08
70407;BME280;57821;52.202;0.154;2022-10-31T00:56:24;101688.16;;;11.92;92.70
70407;BME280;57821;52.202;0.154;2022-10-31T00:58:51;101686.41;;;11.90;92.85
70407;BME280;57821;52.202;0.154;2022-10-31T01:01:19;101687.28;;;11.87;92.80
70407;BME280;57821;52.202;0.154;2022-10-31T01:03:46;101683.78;;;11.85;92.94
70407;BME280;57821;52.202;0.154;2022-10-31T01:06:13;101677.72;;;11.82;93.19
70407;BME280;57821;52.202;0.154;2022-10-31T01:08:40;101677.72;;;11.82;92.70
70407;BME280;57821;52.202;0.154;2022-10-31T01:11:08;101685.50;;;11.80;93.05
70407;BME280;57821;52.202;0.154;2022-10-31T01:13:35;101685.47;;;11.77;93.26
70407;BME280;57821;52.202;0.154;2022-10-31T01:16:03;101674.13;;;11.71;92.69
70407;BME280;57821;52.202;0.154;2022-10-31T01:18:32;101679.38;;;11.74;93.17
70407;BME280;57821;52.202;0.154;2022-10-31T01:21:07;101670.66;;;11.67;93.22
70407;BME280;57821;52.202;0.154;2022-10-31T01:23:34;101678.50;;;11.73;92.91
70407;BME280;57821;52.202;0.154;2022-10-31T01:26:17;101674.13;;;11.71;93.32
70407;BME280;57821;52.202;0.154;2022-10-31T01:28:53;101656.75;;;11.61;93.60
70407;BME280;57821;52.202;0.154;2022-10-31T01:31:21;101675.00;;;11.70;93.26
70407;BME280;57821;52.202;0.154;2022-10-31T01:33:48;101675.88;;;11.69;93.75
70407;BME280;57821;52.202;0.154;2022-10-31T01:38:42;101682.75;;;11.67;93.77
70407;BME280;57821;52.202;0.154;2022-10-31T01:41:10;101671.50;;;11.63;93.18
70407;BME280;57821;52.202;0.154;2022-10-31T01:43:53;101675.81;;;11.63;94.08
70407;BME280;57821;52.202;0.154;2022-10-31T01:46:27;101682.75;;;11.64;93.26
70407;BME280;57821;52.202;0.154;2022-10-31T01:48:57;101677.56;;;11.64;93.24
70407;BME280;57821;52.202;0.154;2022-10-31T01:51:28;101671.50;;;11.63;93.29
70407;BME280;57821;52.202;0.154;2022-10-31T01:53:59;101665.44;;;11.63;93.63
70407;BME280;57821;52.202;0.154;2022-10-31T01:56:27;101668.91;;;11.65;93.07
70407;BME280;57821;52.202;0.154;2022-10-31T01:58:54;101666.31;;;11.65;93.85
70407;BME280;57821;52.202;0.154;2022-10-31T02:01:23;101663.72;;;11.65;93.91
70407;BME280;57821;52.202;0.154;2022-10-31T02:03:50;101657.66;;;11.64;93.45
70407;BME280;57821;52.202;0.154;2022-10-31T02:06:27;101654.13;;;11.59;94.15
70407;BME280;57821;52.202;0.154;2022-10-31T02:08:59;101661.97;;;11.67;94.07
70407;BME280;57821;52.202;0.154;2022-10-31T02:11:28;101664.59;;;11.68;94.36
70407;BME280;57821;52.202;0.154;2022-10-31T02:13:55;101663.72;;;11.71;94.36
70407;BME280;57821;52.202;0.154;2022-10-31T02:16:22;101661.16;;;11.72;94.38
70407;BME280;57821;52.202;0.154;2022-10-31T02:18:49;101665.53;;;11.73;93.89
70407;BME280;57821;52.202;0.154;2022-10-31T02:21:17;101660.34;;;11.75;94.31
70407;BME280;57821;52.202;0.154;2022-10-31T02:32:09;101657.75;;;11.82;94.12
70407;BME280;57821;52.202;0.154;2022-10-31T02:37:20;101651.78;;;11.88;94.33
70407;BME280;57821;52.202;0.154;2022-10-31T02:39:53;101656.97;;;11.91;94.29
70407;BME280;57821;52.202;0.154;2022-10-31T02:42:52;101656.97;;;11.88;94.09
70407;BME280;57821;52.202;0.154;2022-10-31T02:45:30;101651.75;;;11.94;93.69
70407;BME280;57821;52.202;0.154;2022-10-31T02:48:06;101650.06;;;11.93;93.87
70407;BME280;57821;52.202;0.154;2022-10-31T02:50:37;101646.56;;;11.94;93.86
70407;BME280;57821;52.202;0.154;2022-10-31T02:53:05;101658.75;;;12.01;93.95
70407;BME280;57821;52.202;0.154;2022-10-31T02:58:06;101639.69;;;11.99;94.44
70407;BME280;57821;52.202;0.154;2022-10-31T03:06:32;101644.91;;;12.05;94.62
70407;BME280;57821;52.202;0.154;2022-10-31T03:09:05;101646.66;;;12.12;94.05
70407;BME280;57821;52.202;0.154;2022-10-31T03:14:42;101643.19;;;12.10;94.66
70407;BME280;57821;52.202;0.154;2022-10-31T03:17:16;101653.63;;;12.16;94.62
70407;BME280;57821;52.202;0.154;2022-10-31T03:19:47;101637.13;;;12.13;94.02
70407;BME280;57821;52.202;0.154;2022-10-31T03:22:21;101636.28;;;12.15;94.08
70407;BME280;57821;52.202;0.154;2022-10-31T03:24:49;101641.50;;;12.21;94.64
70407;BME280;57821;52.202;0.154;2022-10-31T03:27:25;101625.88;;;12.15;94.21
70407;BME280;57821;52.202;0.154;2022-10-31T03:29:55;101636.31;;;12.21;94.47
70407;BME280;57821;52.202;0.154;2022-10-31T03:32:27;101627.59;;;12.18;94.14
70407;BME280;57821;52.202;0.154;2022-10-31T03:34:59;101627.66;;;12.22;93.88
70407;BME280;57821;52.202;0.154;2022-10-31T03:37:30;101628.50;;;12.24;94.85
70407;BME280;57821;52.202;0.154;2022-10-31T03:40:00;101623.31;;;12.21;94.30
70407;BME280;57821;52.202;0.154;2022-10-31T03:42:30;101625.94;;;12.27;94.54
70407;BME280;57821;52.202;0.154;2022-10-31T03:45:02;101624.16;;;12.23;94.62
70407;BME280;57821;52.202;0.154;2022-10-31T03:47:30;101639.78;;;12.29;94.09
70407;BME280;57821;52.202;0.154;2022-10-31T03:49:58;101636.31;;;12.30;94.11
70407;BME280;57821;52.202;0.154;2022-10-31T03:55:14;101641.53;;;12.30;94.20
70407;BME280;57821;52.202;0.154;2022-10-31T03:58:08;101638.94;;;12.32;94.42
70407;BME280;57821;52.202;0.154;2022-10-31T04:00:39;101632.00;;;12.32;94.72
70407;BME280;57821;52.202;0.154;2022-10-31T04:03:12;101633.75;;;12.33;94.14
70407;BME280;57821;52.202;0.154;2022-10-31T04:05:46;101646.75;;;12.33;94.02
70407;BME280;57821;52.202;0.154;2022-10-31T04:08:17;101645.00;;;12.32;94.08
70407;BME280;57821;52.202;0.154;2022-10-31T04:10:46;101657.16;;;12.33;94.96
70407;BME280;57821;52.202;0.154;2022-10-31T04:13:19;101634.59;;;12.26;94.24
70407;BME280;57821;52.202;0.154;2022-10-31T04:15:55;101644.13;;;12.30;93.96
70407;BME280;57821;52.202;0.154;2022-10-31T04:18:25;101642.38;;;12.29;94.00
70407;BME280;57821;52.202;0.154;2022-10-31T04:21:06;101626.78;;;12.22;94.14
70407;BME280;57821;52.202;0.154;2022-10-31T04:23:35;101638.03;;;12.25;94.69
70407;BME280;57821;52.202;0.154;2022-10-31T04:26:16;101647.56;;;12.25;94.21
70407;BME280;57821;52.202;0.154;2022-10-31T04:28:43;101649.31;;;12.23;94.19
70407;BME280;57821;52.202;0.154;2022-10-31T04:31:11;101649.28;;;12.20;93.94
70407;BME280;57821;52.202;0.154;2022-10-31T04:33:38;101647.56;;;12.19;93.79
70407;BME280;57821;52.202;0.154;2022-10-31T04:36:05;101650.13;;;12.17;94.11
70407;BME280;57821;52.202;0.154;2022-10-31T04:38:32;101642.34;;;12.16;94.15
70407;BME280;57821;52.202;0.154;2022-10-31T04:40:59;101646.69;;;12.15;94.29
70407;BME280;57821;52.202;0.154;2022-10-31T04:43:48;101651.00;;;12.15;93.94
70407;BME280;57821;52.202;0.154;2022-10-31T04:46:15;101645.78;;;12.13;94.13
70407;BME280;57821;52.202;0.154;2022-10-31T04:48:42;101651.84;;;12.12;93.88
70407;BME280;57821;52.202;0.154;2022-10-31T04:51:09;101642.34;;;12.11;94.39
70407;BME280;57821;52.202;0.154;2022-10-31T04:53:36;101644.06;;;12.11;94.18
70407;BME280;57821;52.202;0.154;2022-10-31T04:56:23;101638.88;;;12.11;94.88
70407;BME280;57821;52.202;0.154;2022-10-31T04:58:55;101630.19;;;12.10;94.32
70407;BME280;57821;52.202;0.154;2022-10-31T05:01:23;101644.06;;;12.14;94.82
70407;BME280;57821;52.202;0.154;2022-10-31T05:03:50;101635.41;;;12.15;94.73
70407;BME280;57821;52.202;0.154;2022-10-31T05:06:16;101646.69;;;12.18;95.52
70407;BME280;57821;52.202;0.154;2022-10-31T05:08:44;101647.56;;;12.20;95.43
70407;BME280;57821;52.202;0.154;2022-10-31T05:11:11;101646.69;;;12.24;95.35
70407;BME280;57821;52.202;0.154;2022-10-31T05:13:38;101634.59;;;12.29;95.74
70407;BME280;57821;52.202;0.154;2022-10-31T05:16:25;101622.50;;;12.34;95.07
70407;BME280;57821;52.202;0.154;2022-10-31T05:19:14;101624.22;;;12.39;95.80
70407;BME280;57821;52.202;0.154;2022-10-31T05:21:44;101627.69;;;12.42;95.51
70407;BME280;57821;52.202;0.154;2022-10-31T05:24:10;101620.78;;;12.46;95.38
70407;BME280;57821;52.202;0.154;2022-10-31T05:26:39;101621.66;;;12.49;95.52
70407;BME280;57821;52.202;0.154;2022-10-31T05:29:06;101623.41;;;12.52;95.76
70407;BME280;57821;52.202;0.154;2022-10-31T05:31:32;101623.38;;;12.55;95.44
70407;BME280;57821;52.202;0.154;2022-10-31T05:34:02;101620.81;;;12.58;95.41
70407;BME280;57821;52.202;0.154;2022-10-31T05:37:01;101619.94;;;12.60;95.04
70407;BME280;57821;52.202;0.154;2022-10-31T05:39:27;101617.34;;;12.63;94.92
70407;BME280;57821;52.202;0.154;2022-10-31T05:41:58;101614.72;;;12.66;95.30
70407;BME280;57821;52.202;0.154;2022-10-31T05:44:26;101622.56;;;12.68;95.06
70407;BME280;57821;52.202;0.154;2022-10-31T05:47:17;101608.66;;;12.72;95.36
70407;BME280;57821;52.202;0.154;2022-10-31T05:50:03;101611.28;;;12.73;95.37
70407;BME280;57821;52.202;0.154;2022-10-31T05:52:44;101606.09;;;12.75;95.10
70407;BME280;57821;52.202;0.154;2022-10-31T05:55:28;101608.69;;;12.78;94.62
70407;BME280;57821;52.202;0.154;2022-10-31T05:58:03;101603.50;;;12.81;94.97
70407;BME280;57821;52.202;0.154;2022-10-31T06:00:31;101600.00;;;12.82;95.49
70407;BME280;57821;52.202;0.154;2022-10-31T06:03:06;101597.41;;;12.85;94.84
70407;BME280;57821;52.202;0.154;2022-10-31T06:05:55;101598.28;;;12.90;95.20
70407;BME280;57821;52.202;0.154;2022-10-31T06:08:25;101598.25;;;12.93;95.02
70407;BME280;57821;52.202;0.154;2022-10-31T06:10:54;101602.63;;;12.97;94.60
70407;BME280;57821;52.202;0.154;2022-10-31T06:13:40;101606.06;;;13.01;94.97
70407;BME280;57821;52.202;0.154;2022-10-31T06:16:15;101601.75;;;13.01;94.59
70407;BME280;57821;52.202;0.154;2022-10-31T06:18:43;101597.41;;;13.03;94.19
70407;BME280;57821;52.202;0.154;2022-10-31T06:21:10;101596.56;;;13.04;94.95
70407;BME280;57821;52.202;0.154;2022-10-31T06:23:40;101600.88;;;13.04;94.10
70407;BME280;57821;52.202;0.154;2022-10-31T06:26:33;101603.47;;;13.02;93.74
70407;BME280;57821;52.202;0.154;2022-10-31T06:29:01;101605.22;;;13.00;93.83
70407;BME280;57821;52.202;0.154;2022-10-31T06:31:55;101601.75;;;12.98;93.68
70407;BME280;57821;52.202;0.154;2022-10-31T06:34:22;101604.34;;;12.97;93.80
70407;BME280;57821;52.202;0.154;2022-10-31T06:36:49;101602.59;;;12.94;93.54
70407;BME280;57821;52.202;0.154;2022-10-31T06:39:19;101597.41;;;12.93;93.47
70407;BME280;57821;52.202;0.154;2022-10-31T06:41:47;101598.28;;;12.86;93.35
70407;BME280;57821;52.202;0.154;2022-10-31T06:44:17;101601.75;;;12.91;93.25
70407;BME280;57821;52.202;0.154;2022-10-31T06:46:46;101593.06;;;12.90;93.79
70407;BME280;57821;52.202;0.154;2022-10-31T06:49:33;101596.56;;;12.92;93.78
70407;BME280;57821;52.202;0.154;2022-10-31T06:52:02;101599.16;;;12.92;93.63
70407;BME280;57821;52.202;0.154;2022-10-31T06:54:28;101592.19;;;12.90;93.04
70407;BME280;57821;52.202;0.154;2022-10-31T06:56:57;101591.31;;;12.89;93.66
70407;BME280;57821;52.202;0.154;2022-10-31T06:59:24;101599.16;;;12.91;93.17
70407;BME280;57821;52.202;0.154;2022-10-31T07:02:08;101599.16;;;12.91;93.28
70407;BME280;57821;52.202;0.154;2022-10-31T07:04:36;101598.28;;;12.90;93.45
70407;BME280;57821;52.202;0.154;2022-10-31T07:07:03;101596.56;;;12.92;93.22
70407;BME280;57821;52.202;0.154;2022-10-31T07:09:30;101593.06;;;12.93;93.65
70407;BME280;57821;52.202;0.154;2022-10-31T07:12:01;101593.06;;;12.93;93.18
70407;BME280;57821;52.202;0.154;2022-10-31T07:14:29;101591.31;;;12.95;94.07
70407;BME280;57821;52.202;0.154;2022-10-31T07:16:55;101588.72;;;12.95;94.02
70407;BME280;57821;52.202;0.154;2022-10-31T07:19:29;101580.03;;;12.95;93.88
70407;BME280;57821;52.202;0.154;2022-10-31T07:21:56;101581.78;;;12.96;93.57
70407;BME280;57821;52.202;0.154;2022-10-31T07:24:26;101580.91;;;12.95;93.93
70407;BME280;57821;52.202;0.154;2022-10-31T07:27:15;101585.25;;;12.96;93.84
70407;BME280;57821;52.202;0.154;2022-10-31T07:29:43;101582.66;;;12.92;93.01
70407;BME280;57821;52.202;0.154;2022-10-31T07:32:10;101569.66;;;12.86;93.51
70407;BME280;57821;52.202;0.154;2022-10-31T07:34:44;101578.34;;;12.86;93.23
70407;BME280;57821;52.202;0.154;2022-10-31T07:37:19;101571.38;;;12.82;93.55
70407;BME280;57821;52.202;0.154;2022-10-31T07:39:46;101580.94;;;12.80;92.77
70407;BME280;57821;52.202;0.154;2022-10-31T07:42:13;101576.56;;;12.76;93.00
70407;BME280;57821;52.202;0.154;2022-10-31T07:44:43;101582.66;;;12.75;93.23
70407;BME280;57821;52.202;0.154;2022-10-31T07:47:29;101588.72;;;12.75;93.19
70407;BME280;57821;52.202;0.154;2022-10-31T07:50:34;101582.66;;;12.75;93.54
70407;BME280;57821;52.202;0.154;2022-10-31T07:53:30;101575.72;;;12.79;93.53
70407;BME280;57821;52.202;0.154;2022-10-31T07:56:06;101586.13;;;12.83;94.06
70407;BME280;57821;52.202;0.154;2022-10-31T07:58:33;101580.06;;;12.84;93.72
70407;BME280;57821;52.202;0.154;2022-10-31T08:00:59;101577.44;;;12.90;93.76
70407;BME280;57821;52.202;0.154;2022-10-31T08:03:36;101579.19;;;12.97;93.85
70407;BME280;57821;52.202;0.154;2022-10-31T08:06:08;101581.78;;;13.02;94.42
70407;BME280;57821;52.202;0.154;2022-10-31T08:09:01;101580.91;;;13.07;94.46
70407;BME280;57821;52.202;0.154;2022-10-31T08:11:27;101581.75;;;13.11;94.22
70407;BME280;57821;52.202;0.154;2022-10-31T08:13:54;101587.88;;;13.14;93.99
70407;BME280;57821;52.202;0.154;2022-10-31T08:16:20;101578.31;;;13.16;93.77
70407;BME280;57821;52.202;0.154;2022-10-31T08:18:52;101580.91;;;13.24;94.08
70407;BME280;57821;52.202;0.154;2022-10-31T08:21:19;101579.19;;;13.26;94.03
70407;BME280;57821;52.202;0.154;2022-10-31T08:23:46;101576.56;;;13.31;93.81
70407;BME280;57821;52.202;0.154;2022-10-31T08:26:14;101567.00;;;13.36;93.64
70407;BME280;57821;52.202;0.154;2022-10-31T08:28:42;101571.34;;;13.41;93.87
70407;BME280;57821;52.202;0.154;2022-10-31T08:31:08;101573.91;;;13.46;93.30
70407;BME280;57821;52.202;0.154;2022-10-31T08:33:38;101567.00;;;13.51;93.47
70407;BME280;57821;52.202;0.154;2022-10-31T08:36:23;101568.69;;;13.58;92.97
70407;BME280;57821;52.202;0.154;2022-10-31T08:39:12;101571.25;;;13.69;93.75
70407;BME280;57821;52.202;0.154;2022-10-31T08:41:39;101570.31;;;13.80;93.87
70407;BME280;57821;52.202;0.154;2022-10-31T08:44:10;101565.06;;;13.95;94.27
70407;BME280;57821;52.202;0.154;2022-10-31T08:46:36;101570.19;;;14.14;94.24
70407;BME280;57821;52.202;0.154;2022-10-31T08:49:03;101568.31;;;14.34;94.47
70407;BME280;57821;52.202;0.154;2022-10-31T08:51:30;101566.44;;;14.59;94.27
70407;BME280;57821;52.202;0.154;2022-10-31T08:53:56;101563.59;;;14.89;96.08
70407;BME280;57821;52.202;0.154;2022-10-31T08:56:31;101570.94;;;15.38;96.96
70407;BME280;57821;52.202;0.154;2022-10-31T08:58:59;101561.88;;;15.74;93.91
70407;BME280;57821;52.202;0.154;2022-10-31T09:01:39;101560.63;;;16.02;92.44
70407;BME280;57821;52.202;0.154;2022-10-31T09:04:06;101553.41;;;16.19;90.05
70407;BME280;57821;52.202;0.154;2022-10-31T09:06:32;101550.50;;;16.39;89.96
70407;BME280;57821;52.202;0.154;2022-10-31T09:08:59;101552.00;;;16.60;89.18
70407;BME280;57821;52.202;0.154;2022-10-31T09:11:25;101546.31;;;16.84;89.07
70407;BME280;57821;52.202;0.154;2022-10-31T09:14:12;101551.00;;;17.17;88.86
70407;BME280;57821;52.202;0.154;2022-10-31T09:16:38;101553.97;;;17.44;87.25
70407;BME280;57821;52.202;0.154;2022-10-31T09:19:10;101545.66;;;17.68;85.40
70407;BME280;57821;52.202;0.154;2022-10-31T09:21:37;101544.31;;;17.90;84.67
70407;BME280;57821;52.202;0.154;2022-10-31T09:24:04;101533.41;;;18.09;83.57
70407;BME280;57821;52.202;0.154;2022-10-31T09:26:30;101539.03;;;18.30;82.56
70407;BME280;57821;52.202;0.154;2022-10-31T09:29:06;101540.31;;;18.51;81.70
70407;BME280;57821;52.202;0.154;2022-10-31T09:31:33;101532.81;;;18.71;80.66
70407;BME280;57821;52.202;0.154;2022-10-31T09:34:25;101525.38;;;18.88;80.53
70407;BME280;57821;52.202;0.154;2022-10-31T09:37:05;101527.28;;;19.16;79.98
70407;BME280;57821;52.202;0.154;2022-10-31T09:39:34;101531.81;;;19.42;78.62
70407;BME280;57821;52.202;0.154;2022-10-31T09:45:31;101518.03;;;19.94;76.55
70407;BME280;57821;52.202;0.154;2022-10-31T09:48:27;101517.81;;;20.29;74.89
70407;BME280;57821;52.202;0.154;2022-10-31T09:54:05;101521.03;;;20.67;73.29
70407;BME280;57821;52.202;0.154;2022-10-31T09:56:33;101517.25;;;20.74;72.63
70407;BME280;57821;52.202;0.154;2022-10-31T09:59:02;101506.41;;;20.83;71.97
70407;BME280;57821;52.202;0.154;2022-10-31T10:18:33;101483.25;;;20.91;66.94
70407;BME280;57821;52.202;0.154;2022-10-31T10:26:43;101480.47;;;20.71;67.07
70407;BME280;57821;52.202;0.154;2022-10-31T10:31:49;101480.47;;;20.44;66.74
70407;BME280;57821;52.202;0.154;2022-10-31T10:34:25;101472.38;;;20.23;64.97
70407;BME280;57821;52.202;0.154;2022-10-31T10:36:58;101468.75;;;19.99;65.90
70407;BME280;57821;52.202;0.154;2022-10-31T10:39:39;101464.16;;;19.78;65.93
70407;BME280;57821;52.202;0.154;2022-10-31T10:42:13;101455.13;;;19.57;67.35
70407;BME280;57821;52.202;0.154;2022-10-31T10:44:43;101449.31;;;19.46;67.35
70407;BME280;57821;52.202;0.154;2022-10-31T10:47:11;101458.31;;;19.37;67.22
70407;BME280;57821;52.202;0.154;2022-10-31T10:49:51;101443.06;;;19.19;67.08
70407;BME280;57821;52.202;0.154;2022-10-31T10:52:40;101451.31;;;19.07;67.69
70407;BME280;57821;52.202;0.154;2022-10-31T10:58:09;101440.66;;;18.80;68.18
70407;BME280;57821;52.202;0.154;2022-10-31T11:00:41;101427.84;;;18.68;68.29
70407;BME280;57821;52.202;0.154;2022-10-31T11:03:10;101428.03;;;18.61;68.60
70407;BME280;57821;52.202;0.154;2022-10-31T11:05:39;101423.06;;;18.48;68.30
70407;BME280;57821;52.202;0.154;2022-10-31T11:08:08;101421.41;;;18.46;68.95
70407;BME280;57821;52.202;0.154;2022-10-31T11:10:35;101418.94;;;18.40;69.44
70407;BME280;57821;52.202;0.154;2022-10-31T11:13:21;101407.66;;;18.35;70.08
70407;BME280;57821;52.202;0.154;2022-10-31T11:16:03;101412.88;;;18.36;70.28
70407;BME280;57821;52.202;0.154;2022-10-31T11:18:32;101399.00;;;18.31;70.10
70407;BME280;57821;52.202;0.154;2022-10-31T11:21:02;101405.03;;;18.35;69.67
70407;BME280;57821;52.202;0.154;2022-10-31T11:23:29;101399.84;;;18.33;69.51
70407;BME280;57821;52.202;0.154;2022-10-31T11:26:01;101408.63;;;18.31;70.16
70407;BME280;57821;52.202;0.154;2022-10-31T11:28:29;101394.69;;;18.29;69.30
70407;BME280;57821;52.202;0.154;2022-10-31T11:30:58;101391.31;;;18.24;69.33
70407;BME280;57821;52.202;0.154;2022-10-31T11:33:27;101391.41;;;18.21;69.64
70407;BME280;57821;52.202;0.154;2022-10-31T11:35:54;101390.53;;;18.20;69.35
70407;BME280;57821;52.202;0.154;2022-10-31T11:38:35;101386.28;;;18.16;69.83
70407;BME280;57821;52.202;0.154;2022-10-31T11:41:15;101387.97;;;18.17;69.30
70407;BME280;57821;52.202;0.154;2022-10-31T11:44:04;101374.78;;;18.20;68.79
70407;BME280;57821;52.202;0.154;2022-10-31T11:46:39;101365.31;;;18.15;68.93
70407;BME280;57821;52.202;0.154;2022-10-31T11:49:15;101366.22;;;18.14;68.88
70407;BME280;57821;52.202;0.154;2022-10-31T11:51:48;101356.72;;;18.08;68.47
70407;BME280;57821;52.202;0.154;2022-10-31T11:54:26;101362.00;;;18.06;68.44
70407;BME280;57821;52.202;0.154;2022-10-31T11:56:53;101358.50;;;18.08;68.67
70407;BME280;57821;52.202;0.154;2022-10-31T11:59:30;101352.47;;;18.04;68.29
70407;BME280;57821;52.202;0.154;2022-10-31T12:01:59;101358.63;;;18.01;68.09
70407;BME280;57821;52.202;0.154;2022-10-31T12:04:42;101337.03;;;17.92;68.19
70407;BME280;57821;52.202;0.154;2022-10-31T12:07:10;101346.66;;;17.91;68.16
70407;BME280;57821;52.202;0.154;2022-10-31T12:09:37;101333.69;;;17.85;68.23
70407;BME280;57821;52.202;0.154;2022-10-31T12:17:38;101330.03;;;17.92;68.54
70407;BME280;57821;52.202;0.154;2022-10-31T12:26:12;101317.91;;;17.87;67.52
70407;BME280;57821;52.202;0.154;2022-10-31T12:28:50;101318.78;;;17.87;67.98
70407;BME280;57821;52.202;0.154;2022-10-31T12:31:24;101303.09;;;17.84;67.67
70407;BME280;57821;52.202;0.154;2022-10-31T12:39:24;101277.97;;;17.76;69.19
70407;BME280;57821;52.202;0.154;2022-10-31T12:41:51;101280.25;;;17.89;68.86
70407;BME280;57821;52.202;0.154;2022-10-31T12:47:35;101264.88;;;18.08;68.12
70407;BME280;57821;52.202;0.154;2022-10-31T13:00:52;101242.38;;;18.32;67.88
70407;BME280;57821;52.202;0.154;2022-10-31T13:03:33;101238.66;;;18.39;67.86
70407;BME280;57821;52.202;0.154;2022-10-31T13:06:09;101222.03;;;18.40;67.00
70407;BME280;57821;52.202;0.154;2022-10-31T13:08:50;101212.44;;;18.37;66.69
70407;BME280;57821;52.202;0.154;2022-10-31T13:11:22;101209.66;;;18.43;66.31
70407;BME280;57821;52.202;0.154;2022-10-31T13:16:47;101198.22;;;18.46;66.77
70407;BME280;57821;52.202;0.154;2022-10-31T13:19:22;101195.69;;;18.41;66.18
70407;BME280;57821;52.202;0.154;2022-10-31T13:22:18;101200.44;;;18.29;67.08
70407;BME280;57821;52.202;0.154;2022-10-31T13:25:02;101179.88;;;18.14;66.97
70407;BME280;57821;52.202;0.154;2022-10-31T13:27:41;101167.84;;;18.06;68.33
70407;BME280;57821;52.202;0.154;2022-10-31T13:30:16;101169.38;;;18.14;68.39
70407;BME280;57821;52.202;0.154;2022-10-31T13:32:54;101163.22;;;18.16;68.26
70407;BME280;57821;52.202;0.154;2022-10-31T13:35:29;101146.59;;;18.16;68.69
70407;BME280;57821;52.202;0.154;2022-10-31T13:46:23;101107.09;;;18.20;68.92
70407;BME280;57821;52.202;0.154;2022-10-31T13:48:50;101116.34;;;18.33;68.68
70407;BME280;57821;52.202;0.154;2022-10-31T13:51:25;101101.97;;;18.45;68.42
70407;BME280;57821;52.202;0.154;2022-10-31T13:56:30;101095.34;;;18.89;66.79
70407;BME280;57821;52.202;0.154;2022-10-31T14:01:46;101098.22;;;19.08;66.49
70407;BME280;57821;52.202;0.154;2022-10-31T14:04:20;101099.63;;;19.18;66.67
70407;BME280;57821;52.202;0.154;2022-10-31T14:09:28;101080.34;;;19.44;66.35
70407;BME280;57821;52.202;0.154;2022-10-31T14:11:57;101070.28;;;19.56;65.28
70407;BME280;57821;52.202;0.154;2022-10-31T14:14:30;101058.09;;;19.54;64.24
70407;BME280;57821;52.202;0.154;2022-10-31T14:16:59;101058.91;;;19.56;64.72
70407;BME280;57821;52.202;0.154;2022-10-31T14:19:26;101051.16;;;19.51;64.46
70407;BME280;57821;52.202;0.154;2022-10-31T14:21:52;101041.75;;;19.44;64.16
70407;BME280;57821;52.202;0.154;2022-10-31T14:27:03;101040.19;;;19.14;64.65
70407;BME280;57821;52.202;0.154;2022-10-31T14:29:33;101035.25;;;19.05;64.38
70407;BME280;57821;52.202;0.154;2022-10-31T14:32:20;101029.41;;;18.97;63.87
70407;BME280;57821;52.202;0.154;2022-10-31T14:51:17;100988.97;;;18.48;64.90
70407;BME280;57821;52.202;0.154;2022-10-31T14:53:49;100987.41;;;18.42;65.06
70407;BME280;57821;52.202;0.154;2022-10-31T14:56:24;100984.94;;;18.38;65.55
70407;BME280;57821;52.202;0.154;2022-10-31T14:58:53;100983.41;;;18.31;66.72
70407;BME280;57821;52.202;0.154;2022-10-31T15:01:27;100972.38;;;18.20;66.87
70407;BME280;57821;52.202;0.154;2022-10-31T15:04:02;100973.28;;;18.19;67.60
70407;BME280;57821;52.202;0.154;2022-10-31T15:06:59;100963.16;;;18.06;67.55
70407;BME280;57821;52.202;0.154;2022-10-31T15:09:29;100967.66;;;18.03;67.77
70407;BME280;57821;52.202;0.154;2022-10-31T15:11:59;100965.28;;;17.95;67.83
70407;BME280;57821;52.202;0.154;2022-10-31T15:14:28;100956.88;;;17.84;68.71
70407;BME280;57821;52.202;0.154;2022-10-31T15:16:56;100957.06;;;17.78;68.93
70407;BME280;57821;52.202;0.154;2022-10-31T15:19:26;100944.13;;;17.72;69.60
70407;BME280;57821;52.202;0.154;2022-10-31T15:21:55;100939.94;;;17.67;69.62
70407;BME280;57821;52.202;0.154;2022-10-31T15:24:29;100929.72;;;17.56;69.31
70407;BME280;57821;52.202;0.154;2022-10-31T15:26:58;100929.75;;;17.54;69.51